Time;durP1;ratioP1;P1;durP2;ratioP2;P2;SDS_P1;SDS_P2;PMS_P1;PMS_P2;Temp;Humidity;BMP_temperature;BMP_pressure;BME280_temperature;BME280_humidity;BME280_pressure;Samples;Min_cycle;Max_cycle;Signal;HPM_P1;HPM_P2
2022/07/15 00:01:15;;;;;;;;;6.50;6.00;;;;;27.60;31.62;101686.34;4962055;28;46085;-50
2022/07/15 00:03:40;;;;;;;;;8.00;7.00;;;;;27.60;31.79;101689.00;4959108;28;45439;-52
2022/07/15 00:06:05;;;;;;;;;9.00;8.25;;;;;27.60;32.20;101691.66;4957399;28;45358;-49
2022/07/15 00:08:31;;;;;;;;;8.00;8.00;;;;;27.58;32.03;101685.59;4957792;28;45357;-52
2022/07/15 00:10:56;;;;;;;;;10.00;10.00;;;;;27.57;32.06;101686.56;4957115;28;45864;-52
2022/07/15 00:13:23;;;;;;;;;12.50;10.25;;;;;27.58;32.05;101688.25;4957185;28;55201;-48
2022/07/15 00:15:49;;;;;;;;;10.75;9.00;;;;;27.56;32.30;101688.34;4957691;28;45402;-51
2022/07/15 00:18:14;;;;;;;;;14.00;10.50;;;;;27.56;32.06;101687.50;4957636;28;45446;-51
2022/07/15 00:20:40;;;;;;;;;10.75;9.75;;;;;27.56;32.18;101685.69;4959879;28;45995;-51
2022/07/15 00:23:06;;;;;;;;;10.50;10.00;;;;;27.55;32.18;101693.81;4959675;28;45365;-52
2022/07/15 00:25:33;;;;;;;;;11.25;11.00;;;;;27.54;32.12;101689.44;4959816;28;45346;-49
2022/07/15 00:28:01;;;;;;;;;13.50;11.50;;;;;27.53;32.25;101695.72;4960838;28;45459;-48
2022/07/15 00:30:32;;;;;;;;;9.75;9.00;;;;;27.52;32.24;101702.88;4957195;28;49000;-47
2022/07/15 00:32:57;;;;;;;;;11.00;11.00;;;;;27.50;32.42;101698.63;4957010;28;45283;-49
2022/07/15 00:35:23;;;;;;;;;8.75;8.75;;;;;27.50;32.27;101704.78;4957196;28;45277;-51
2022/07/15 00:37:49;;;;;;;;;9.00;7.00;;;;;27.49;32.05;101705.75;4957722;28;45248;-50
2022/07/15 00:40:14;;;;;;;;;8.75;7.00;;;;;27.50;32.18;101706.59;4956778;28;45890;-49
2022/07/15 00:42:45;;;;;;;;;8.50;8.50;;;;;27.49;32.48;101711.06;4962014;28;45424;-50
2022/07/15 00:45:11;;;;;;;;;10.00;8.25;;;;;27.47;32.15;101710.31;4960376;28;45380;-47
2022/07/15 00:47:37;;;;;;;;;7.50;6.00;;;;;27.47;32.20;101705.00;4971657;28;45564;-51
2022/07/15 00:50:02;;;;;;;;;8.25;7.50;;;;;27.47;32.40;101718.31;4963432;28;46104;-48
2022/07/15 00:52:29;;;;;;;;;7.50;6.50;;;;;27.47;32.14;101723.63;4959990;28;45811;-50
2022/07/15 00:55:00;;;;;;;;;10.25;7.00;;;;;27.46;32.51;101728.13;4958457;28;45334;-51
2022/07/15 00:57:28;;;;;;;;;8.50;5.00;;;;;27.45;32.31;101731.75;4957394;28;45286;-49
2022/07/15 00:59:54;;;;;;;;;8.75;6.00;;;;;27.46;32.32;101735.25;4956826;28;47373;-47
2022/07/15 01:02:20;;;;;;;;;7.75;7.00;;;;;27.44;32.59;101729.19;4961724;28;45376;-51
2022/07/15 01:04:47;;;;;;;;;7.50;6.00;;;;;27.42;32.40;101734.56;4977494;28;44718;-51
2022/07/15 01:07:13;;;;;;;;;5.00;5.00;;;;;27.42;32.45;101731.91;4962442;28;45549;-49
2022/07/15 01:09:38;;;;;;;;;5.75;4.75;;;;;27.40;32.39;101733.00;4956818;28;46063;-50
2022/07/15 01:12:04;;;;;;;;;6.00;5.00;;;;;27.41;32.47;101734.69;4956598;28;45390;-50
2022/07/15 01:14:30;;;;;;;;;4.50;4.50;;;;;27.38;32.72;101741.09;4956955;28;45315;-49
2022/07/15 01:16:55;;;;;;;;;6.25;5.75;;;;;27.36;32.71;101745.69;4958899;28;45267;-48
2022/07/15 01:19:20;;;;;;;;;4.50;4.00;;;;;27.36;32.40;101740.34;4960854;28;45224;-49
2022/07/15 01:21:46;;;;;;;;;7.50;6.00;;;;;27.35;32.67;101741.31;4957220;28;45220;-49
2022/07/15 01:24:12;;;;;;;;;6.75;5.25;;;;;27.33;32.41;101745.88;4960933;28;45208;-51
2022/07/15 01:26:37;;;;;;;;;9.00;6.75;;;;;27.34;32.59;101744.09;4959601;28;45601;-50
2022/07/15 01:29:03;;;;;;;;;7.50;6.00;;;;;27.32;32.45;101741.50;4963270;28;46242;-46
2022/07/15 01:31:28;;;;;;;;;4.25;4.25;;;;;27.32;32.37;101749.50;4961256;28;45271;-51
2022/07/15 01:33:54;;;;;;;;;6.00;5.00;;;;;27.32;32.60;101752.16;4959458;28;45297;-49
2022/07/15 01:36:19;;;;;;;;;5.75;5.75;;;;;27.30;32.67;101732.78;4959280;28;45248;-52
2022/07/15 01:38:44;;;;;;;;;4.75;4.50;;;;;27.30;32.69;101740.78;4956342;28;46607;-50
2022/07/15 01:41:10;;;;;;;;;7.75;6.00;;;;;27.29;32.77;101737.28;4955936;28;47625;-53
2022/07/15 01:43:35;;;;;;;;;5.00;4.00;;;;;27.27;32.34;101747.16;4957849;28;45326;-51
2022/07/15 01:46:00;;;;;;;;;4.50;4.50;;;;;27.26;32.16;101744.63;4959344;28;45547;-51
2022/07/15 01:51:10;;;;;;;;;4.50;4.50;;;;;27.23;32.37;101753.66;4956638;28;45783;-52
2022/07/15 01:53:36;;;;;;;;;7.50;4.00;;;;;27.22;32.30;101751.09;4956373;28;45464;-49
2022/07/15 01:56:01;;;;;;;;;5.00;4.25;;;;;27.17;32.62;101741.63;4956376;28;45791;-48
2022/07/15 01:58:27;;;;;;;;;4.00;4.00;;;;;27.16;32.29;101758.56;4956069;28;45426;-48
2022/07/15 02:00:52;;;;;;;;;4.25;4.25;;;;;27.15;32.13;101756.88;4958785;28;46858;-50
2022/07/15 02:03:18;;;;;;;;;4.00;4.00;;;;;27.14;32.18;101760.50;4960053;28;45367;-50
2022/07/15 02:05:43;;;;;;;;;3.00;3.00;;;;;27.13;32.03;101753.47;4966752;28;45337;-54
2022/07/15 02:08:08;;;;;;;;;3.50;3.50;;;;;27.11;32.38;101749.22;4977606;28;57439;-48
2022/07/15 02:10:40;;;;;;;;;4.75;3.75;;;;;27.11;32.16;101731.41;4971536;28;45366;-50
2022/07/15 02:13:10;;;;;;;;;3.50;3.00;;;;;27.09;31.99;101736.00;4961181;28;45514;-49
2022/07/15 02:15:36;;;;;;;;;2.00;2.00;;;;;27.07;31.98;101745.88;4958537;28;45357;-50
2022/07/15 02:18:03;;;;;;;;;3.75;3.50;;;;;27.07;32.23;101747.72;4959112;28;46233;-53
2022/07/15 02:20:30;;;;;;;;;6.00;4.25;;;;;27.04;31.93;101748.78;4959307;28;45226;-48
2022/07/15 02:22:57;;;;;;;;;3.00;3.00;;;;;27.02;32.05;101750.69;4959125;28;45408;-53
2022/07/15 02:25:26;;;;;;;;;3.50;3.50;;;;;27.01;32.12;101748.97;4959558;28;45410;-49
2022/07/15 02:28:00;;;;;;;;;3.00;3.00;;;;;27.00;32.01;101741.97;4959374;28;46263;-50
2022/07/15 02:30:31;;;;;;;;;4.00;4.00;;;;;26.99;31.69;101746.44;4959774;28;45605;-48
2022/07/15 02:32:56;;;;;;;;;2.25;2.25;;;;;26.99;32.03;101745.56;4959726;28;45422;-49
2022/07/15 02:35:22;;;;;;;;;4.00;4.00;;;;;26.98;31.89;101746.53;4962341;28;45327;-50
2022/07/15 02:37:47;;;;;;;;;3.00;3.00;;;;;26.97;31.64;101742.16;4961926;28;46185;-53
2022/07/15 02:40:13;;;;;;;;;4.00;3.00;;;;;26.96;31.71;101746.66;4958759;28;45413;-48
2022/07/15 02:42:39;;;;;;;;;4.00;2.50;;;;;26.94;31.91;101747.72;4959056;28;45396;-50
2022/07/15 02:45:05;;;;;;;;;1.00;1.00;;;;;26.94;31.83;101747.72;4957639;28;45424;-52
2022/07/15 02:47:31;;;;;;;;;3.00;3.00;;;;;26.92;31.58;101736.31;4958916;28;45314;-51
2022/07/15 02:49:57;;;;;;;;;3.00;3.00;;;;;26.93;31.61;101743.34;4958553;28;45283;-51
2022/07/15 02:52:22;;;;;;;;;2.50;2.50;;;;;26.91;31.73;101738.13;4959220;28;45220;-48
2022/07/15 02:54:47;;;;;;;;;4.00;3.50;;;;;26.91;31.84;101743.44;4962480;28;45445;-51
2022/07/15 02:57:13;;;;;;;;;4.50;3.00;;;;;26.92;31.63;101752.28;4959725;28;56471;-47
2022/07/15 02:59:38;;;;;;;;;5.00;3.25;;;;;26.91;31.47;101758.56;4973835;28;46024;-52
2022/07/15 03:02:04;;;;;;;;;3.00;3.00;;;;;26.90;31.66;101763.00;4974643;28;44741;-51
2022/07/15 03:04:29;;;;;;;;;4.75;2.00;;;;;26.90;31.31;101762.16;4970060;28;45311;-49
2022/07/15 03:06:55;;;;;;;;;3.50;3.00;;;;;26.90;31.61;101756.84;4960983;28;45382;-54
2022/07/15 03:09:20;;;;;;;;;2.00;2.00;;;;;26.89;31.73;101755.16;4959431;28;45338;-53
2022/07/15 03:11:45;;;;;;;;;4.50;3.75;;;;;26.87;31.44;101765.91;4959248;28;45267;-49
2022/07/15 03:14:11;;;;;;;;;3.50;3.50;;;;;26.87;31.51;101763.25;4959156;28;45346;-51
2022/07/15 03:16:36;;;;;;;;;5.00;4.00;;;;;26.87;31.76;101762.38;4961398;28;46077;-51
2022/07/15 03:19:02;;;;;;;;;3.75;3.00;;;;;26.85;31.59;101763.31;4959436;28;46079;-51
2022/07/15 03:21:27;;;;;;;;;6.25;4.00;;;;;26.84;31.57;101763.44;4959870;28;45678;-50
2022/07/15 03:23:54;;;;;;;;;5.00;3.75;;;;;26.83;31.53;101773.25;4970129;28;45422;-51
2022/07/15 03:26:20;;;;;;;;;6.00;3.00;;;;;26.76;30.95;101774.56;4978761;28;46125;-50
2022/07/15 03:28:46;;;;;;;;;4.00;4.00;;;;;26.66;31.10;101773.47;4963650;28;45684;-52
2022/07/15 03:31:11;;;;;;;;;2.50;2.50;;;;;26.58;31.29;101763.34;4958389;28;45191;-50
2022/07/15 03:33:37;;;;;;;;;4.50;3.00;;;;;26.48;31.41;101767.56;4958527;28;45559;-51
2022/07/15 03:36:02;;;;;;;;;2.25;2.25;;;;;26.37;31.37;101766.47;4960429;28;47120;-53
2022/07/15 03:38:28;;;;;;;;;5.00;4.00;;;;;26.30;31.48;101753.69;4961629;28;45343;-50
2022/07/15 03:40:53;;;;;;;;;2.75;2.75;;;;;26.23;31.77;101756.78;4965305;28;45267;-50
2022/07/15 03:43:18;;;;;;;;;3.50;3.00;;;;;26.15;31.50;101756.44;4966501;28;45237;-49
2022/07/15 03:45:43;;;;;;;;;3.75;3.75;;;;;26.06;32.03;101751.69;4961185;28;45273;-51
2022/07/15 03:48:09;;;;;;;;;4.00;4.00;;;;;25.99;31.87;101750.34;4961723;28;45239;-49
2022/07/15 03:50:35;;;;;;;;;4.25;4.25;;;;;25.91;32.03;101743.75;4962550;28;45230;-50
2022/07/15 03:53:00;;;;;;;;;6.00;6.00;;;;;25.85;32.04;101744.13;4963396;28;45513;-52
2022/07/15 03:55:26;;;;;;;;;4.50;4.50;;;;;25.81;32.13;101749.72;4962438;28;46175;-51
2022/07/15 03:57:51;;;;;;;;;5.00;5.00;;;;;25.77;31.88;101757.03;4961537;28;45501;-46
2022/07/15 04:00:16;;;;;;;;;3.50;3.50;;;;;25.74;32.20;101757.25;4963710;28;45502;-50
2022/07/15 04:02:42;;;;;;;;;3.25;3.00;;;;;25.70;31.87;101763.69;4959005;28;52188;-47
2022/07/15 04:05:08;;;;;;;;;4.00;4.00;;;;;25.64;32.21;101756.97;4958650;28;45402;-47
2022/07/15 04:07:33;;;;;;;;;4.25;3.25;;;;;25.59;32.01;101759.91;4958478;28;45372;-50
2022/07/15 04:09:59;;;;;;;;;7.50;5.00;;;;;25.57;32.27;101760.97;4957998;28;45335;-50
2022/07/15 04:12:24;;;;;;;;;5.00;5.00;;;;;25.54;32.53;101762.00;4957762;28;45587;-49
2022/07/15 04:14:49;;;;;;;;;4.50;4.50;;;;;25.50;32.06;101765.81;4957813;28;46340;-49
2022/07/15 04:17:14;;;;;;;;;2.50;2.50;;;;;25.49;32.68;101766.75;4959663;28;45314;-51
2022/07/15 04:19:40;;;;;;;;;5.50;5.00;;;;;25.46;32.71;101774.91;4961747;28;45314;-51
2022/07/15 04:22:05;;;;;;;;;4.25;4.25;;;;;25.43;32.38;101769.75;4944189;28;45283;-47
2022/07/15 04:24:31;;;;;;;;;4.00;4.00;;;;;25.39;32.47;101769.06;4957405;28;45540;-49
2022/07/15 04:26:56;;;;;;;;;5.50;5.25;;;;;25.38;32.66;101766.53;4957261;28;45739;-48
2022/07/15 04:29:21;;;;;;;;;4.25;3.75;;;;;25.36;33.21;101773.72;4957497;28;45197;-50
2022/07/15 04:31:47;;;;;;;;;4.75;4.75;;;;;25.31;32.93;101763.41;4957955;28;45453;-52
2022/07/15 04:34:12;;;;;;;;;6.75;5.00;;;;;25.26;32.90;101763.69;4939690;28;47170;-51
2022/07/15 04:36:37;;;;;;;;;4.75;4.00;;;;;25.23;33.31;101773.63;4957460;28;45187;-49
2022/07/15 04:39:03;;;;;;;;;7.00;4.00;;;;;25.18;33.38;101771.25;4960136;28;45280;-50
2022/07/15 04:41:28;;;;;;;;;6.00;5.00;;;;;25.13;32.94;101781.28;4962231;28;45243;-49
2022/07/15 04:43:54;;;;;;;;;5.50;5.50;;;;;25.10;33.63;101786.75;4964412;28;45199;-51
2022/07/15 04:46:19;;;;;;;;;5.00;5.00;;;;;25.08;33.71;101786.03;4958975;28;45266;-49
2022/07/15 04:51:29;;;;;;;;;4.00;4.00;;;;;25.07;33.11;101789.63;4957424;28;45544;-51
2022/07/15 04:53:54;;;;;;;;;6.00;4.00;;;;;25.06;33.72;101778.16;4956691;28;49169;-52
2022/07/15 04:56:20;;;;;;;;;6.00;5.00;;;;;25.04;33.66;101781.84;4957302;28;45174;-53
2022/07/15 04:58:45;;;;;;;;;6.25;5.00;;;;;25.01;33.39;101789.03;4956995;28;45343;-50
2022/07/15 05:01:11;;;;;;;;;5.50;5.50;;;;;24.99;34.04;101782.97;4956896;28;45417;-49
2022/07/15 05:03:37;;;;;;;;;5.00;5.00;;;;;24.98;34.08;101791.84;4960363;28;46057;-52
2022/07/15 05:06:03;;;;;;;;;3.75;3.75;;;;;24.96;33.79;101785.81;4960591;28;45399;-49
2022/07/15 05:08:28;;;;;;;;;5.00;4.25;;;;;24.95;34.25;101785.88;4958034;28;45525;-52
2022/07/15 05:10:53;;;;;;;;;6.00;4.00;;;;;24.92;33.76;101797.53;4959690;28;45364;-50
2022/07/15 05:13:18;;;;;;;;;5.25;5.25;;;;;24.90;34.22;101794.13;4957120;28;45373;-47
2022/07/15 05:15:44;;;;;;;;;5.00;4.00;;;;;24.90;34.36;101799.41;4956869;28;45423;-51
2022/07/15 05:18:09;;;;;;;;;6.00;5.00;;;;;24.88;34.61;101803.13;4956894;28;45376;-50
2022/07/15 05:20:34;;;;;;;;;5.50;4.25;;;;;24.85;34.52;101796.19;4962440;28;45326;-50
2022/07/15 05:23:00;;;;;;;;;3.00;3.00;;;;;24.81;34.45;101798.16;4974563;28;47180;-52
2022/07/15 05:25:25;;;;;;;;;6.00;5.00;;;;;24.79;34.73;101807.16;4963852;28;45402;-50
2022/07/15 05:27:51;;;;;;;;;5.00;5.00;;;;;24.77;34.52;101801.06;4958078;28;45228;-51
2022/07/15 05:30:17;;;;;;;;;7.75;5.00;;;;;24.75;34.34;101803.81;4956965;28;45196;-52
2022/07/15 05:32:43;;;;;;;;;7.00;4.50;;;;;24.72;34.42;101809.31;4957240;28;46773;-49
2022/07/15 05:35:08;;;;;;;;;4.75;4.25;;;;;24.69;34.63;101810.34;4963483;28;45271;-48
2022/07/15 05:37:37;;;;;;;;;6.25;5.25;;;;;24.68;35.19;101811.28;4962456;28;45358;-49
2022/07/15 05:40:03;;;;;;;;;7.00;5.00;;;;;24.67;34.53;101816.66;4960077;28;45512;-51
2022/07/15 05:42:28;;;;;;;;;5.00;5.00;;;;;24.65;34.84;101821.19;4944327;28;48297;-51
2022/07/15 05:44:54;;;;;;;;;4.00;4.00;;;;;24.66;35.15;101823.72;4960303;28;45395;-53
2022/07/15 05:47:19;;;;;;;;;6.00;5.00;;;;;24.66;34.81;101823.72;4965016;28;45343;-51
2022/07/15 05:49:44;;;;;;;;;5.00;4.75;;;;;24.63;35.11;101829.22;4961619;28;45358;-50
2022/07/15 05:52:10;;;;;;;;;6.50;5.00;;;;;24.61;35.23;101820.50;4960454;28;55573;-53
2022/07/15 05:54:37;;;;;;;;;7.00;5.25;;;;;24.60;35.11;101829.41;4962664;28;45161;-51
2022/07/15 05:57:03;;;;;;;;;6.75;5.00;;;;;24.59;34.91;101817.09;4968379;28;45363;-52
2022/07/15 05:59:29;;;;;;;;;4.75;3.50;;;;;24.61;35.40;101831.09;4977612;28;45295;-54
2022/07/15 06:01:55;;;;;;;;;4.75;1.00;;;;;24.60;35.27;101832.06;4964586;28;45243;-48
2022/07/15 06:04:20;;;;;;;;;6.25;5.25;;;;;24.58;35.86;101836.56;4964480;28;45384;-57
2022/07/15 06:06:45;;;;;;;;;5.75;5.00;;;;;24.58;35.88;101835.75;4965444;28;45269;-48
2022/07/15 06:09:11;;;;;;;;;7.50;5.00;;;;;24.57;35.55;101834.03;4962980;28;45562;-49
2022/07/15 06:11:36;;;;;;;;;6.75;6.75;;;;;24.54;35.93;101830.59;4964701;28;46921;-49
2022/07/15 06:14:03;;;;;;;;;6.25;5.00;;;;;24.53;35.75;101838.63;4964476;28;45455;-47
2022/07/15 06:16:29;;;;;;;;;7.25;6.00;;;;;24.50;36.09;101836.16;4962148;28;45361;-48
2022/07/15 06:18:54;;;;;;;;;6.75;6.00;;;;;24.46;36.21;101827.53;4965350;28;45560;-48
2022/07/15 06:21:19;;;;;;;;;3.00;3.00;;;;;24.45;35.50;101820.53;4962835;28;54497;-50
2022/07/15 06:23:45;;;;;;;;;4.75;4.75;;;;;24.46;35.66;101822.25;4959582;28;45400;-49
2022/07/15 06:26:10;;;;;;;;;4.50;4.50;;;;;24.46;35.79;101831.97;4959803;28;48541;-49
2022/07/15 06:28:35;;;;;;;;;8.25;6.00;;;;;24.46;35.76;101831.97;4962284;28;45358;-48
2022/07/15 06:31:01;;;;;;;;;4.00;4.00;;;;;24.46;35.84;101821.38;4966864;28;45317;-49
2022/07/15 06:33:27;;;;;;;;;8.25;6.00;;;;;24.46;35.92;101829.31;4982274;28;45269;-46
2022/07/15 06:35:52;;;;;;;;;7.00;5.50;;;;;24.47;35.73;101831.03;4980963;28;45221;-51
2022/07/15 06:38:17;;;;;;;;;7.00;4.00;;;;;24.45;35.67;101835.56;4974911;28;45156;-52
2022/07/15 06:40:43;;;;;;;;;5.00;5.00;;;;;24.45;36.33;101836.44;4963563;28;45344;-51
2022/07/15 06:43:08;;;;;;;;;5.50;5.50;;;;;24.46;35.74;101834.63;4959130;28;45354;-47
2022/07/15 06:45:33;;;;;;;;;7.00;5.75;;;;;24.47;36.04;101846.94;4958538;28;45386;-48
2022/07/15 06:47:59;;;;;;;;;4.25;4.00;;;;;24.46;36.00;101843.44;4958675;28;45400;-50
2022/07/15 06:50:25;;;;;;;;;6.25;6.00;;;;;24.47;35.41;101854.88;4958256;28;46984;-48
2022/07/15 06:52:51;;;;;;;;;5.75;4.00;;;;;24.48;36.08;101840.69;4960330;28;45459;-47
2022/07/15 06:55:16;;;;;;;;;5.50;5.00;;;;;24.48;35.93;101846.00;4958290;28;45450;-48
2022/07/15 06:57:41;;;;;;;;;5.00;5.00;;;;;24.47;35.42;101834.56;4958550;28;45308;-49
2022/07/15 07:00:09;;;;;;;;;5.00;5.00;;;;;24.48;35.70;101846.00;4957526;28;45590;-49
2022/07/15 07:02:35;;;;;;;;;9.00;4.50;;;;;24.50;35.95;101844.13;4957392;28;45938;-51
2022/07/15 07:05:00;;;;;;;;;3.75;2.75;;;;;24.48;35.32;101851.28;4957872;28;45799;-48
2022/07/15 07:07:26;;;;;;;;;5.75;5.00;;;;;24.46;35.94;101839.91;4956748;28;45448;-50
2022/07/15 07:09:51;;;;;;;;;6.75;4.50;;;;;24.46;35.76;101842.56;4957751;28;50571;-48
2022/07/15 07:12:17;;;;;;;;;6.50;5.00;;;;;24.48;35.74;101841.53;4957617;28;45197;-52
2022/07/15 07:14:43;;;;;;;;;4.75;4.00;;;;;24.49;35.49;101837.09;4961314;28;45428;-49
2022/07/15 07:17:08;;;;;;;;;4.00;4.00;;;;;24.48;35.51;101846.84;4968786;28;45312;-48
2022/07/15 07:19:33;;;;;;;;;4.00;4.00;;;;;24.49;35.00;101850.34;4975428;28;45250;-48
2022/07/15 07:21:59;;;;;;;;;6.25;5.50;;;;;24.47;35.14;101844.28;4959103;28;45239;-47
2022/07/15 07:24:24;;;;;;;;;5.00;4.00;;;;;24.48;34.69;101851.28;4958795;28;47768;-50
2022/07/15 07:26:49;;;;;;;;;4.25;4.25;;;;;24.45;34.60;101838.22;4958142;28;45270;-49
2022/07/15 07:29:22;;;;;;;;;4.00;4.00;;;;;24.47;34.60;101841.63;4957485;28;46854;-49
2022/07/15 07:31:47;;;;;;;;;4.00;4.00;;;;;24.47;34.44;101841.63;4957798;28;45732;-48
2022/07/15 07:34:12;;;;;;;;;5.00;5.00;;;;;24.48;34.50;101841.53;4957726;28;45330;-51
2022/07/15 07:36:38;;;;;;;;;3.75;3.00;;;;;24.50;34.37;101833.50;4958430;28;46101;-49
2022/07/15 07:39:03;;;;;;;;;3.00;3.00;;;;;24.51;34.30;101845.81;4946472;28;60855;-51
2022/07/15 07:41:29;;;;;;;;;4.00;4.00;;;;;24.52;34.59;101840.44;4959479;28;45315;-55
2022/07/15 07:43:54;;;;;;;;;4.00;4.00;;;;;24.54;34.54;101841.19;4974657;28;45437;-55
2022/07/15 07:46:19;;;;;;;;;4.25;4.25;;;;;24.56;34.45;101838.44;4958668;28;45612;-53
2022/07/15 07:48:45;;;;;;;;;7.00;4.25;;;;;24.56;34.11;101838.44;4957627;28;52461;-53
2022/07/15 07:51:10;;;;;;;;;4.25;4.00;;;;;24.57;34.23;101834.88;4957485;28;45365;-50
2022/07/15 07:53:35;;;;;;;;;5.75;3.50;;;;;24.58;34.22;101833.94;4957571;28;45491;-52
2022/07/15 07:56:03;;;;;;;;;3.00;3.00;;;;;24.60;33.51;101839.13;4957728;28;45317;-51
2022/07/15 07:58:28;;;;;;;;;3.00;3.00;;;;;24.58;33.23;101839.22;4956446;28;47183;-52
2022/07/15 08:00:55;;;;;;;;;3.25;3.25;;;;;24.57;33.87;101834.88;4957425;28;45436;-47
2022/07/15 08:03:21;;;;;;;;;3.00;3.00;;;;;24.58;33.23;101830.44;4958011;28;45344;-54
2022/07/15 08:05:46;;;;;;;;;4.75;4.00;;;;;24.57;33.10;101818.97;4958169;28;45536;-55
2022/07/15 08:08:18;;;;;;;;;3.00;3.00;;;;;24.60;33.32;101818.78;4957746;28;47092;-50
2022/07/15 08:10:46;;;;;;;;;5.50;4.00;;;;;24.63;33.06;101821.28;4958224;28;45836;-53
2022/07/15 08:13:12;;;;;;;;;5.00;2.00;;;;;24.66;33.24;101823.72;4959418;28;45362;-49
2022/07/15 08:15:39;;;;;;;;;3.25;2.75;;;;;24.68;33.52;101813.94;4958774;28;45536;-53
2022/07/15 08:18:04;;;;;;;;;3.75;3.75;;;;;24.72;33.23;101819.06;4957157;28;46174;-49
2022/07/15 08:20:31;;;;;;;;;3.75;3.50;;;;;24.76;32.84;101817.91;4957452;28;45256;-53
2022/07/15 08:23:01;;;;;;;;;4.25;3.25;;;;;24.80;33.26;101819.47;4959240;28;45437;-54
2022/07/15 08:25:28;;;;;;;;;4.00;4.00;;;;;24.81;32.67;101821.19;4962213;28;45464;-48
2022/07/15 08:27:54;;;;;;;;;4.00;4.00;;;;;24.82;33.13;101817.59;4962607;28;46203;-53
2022/07/15 08:30:20;;;;;;;;;4.50;3.00;;;;;24.82;33.13;101813.13;4962848;28;45242;-54
2022/07/15 08:32:45;;;;;;;;;3.75;2.50;;;;;24.83;32.80;101821.94;4964414;28;45329;-56
2022/07/15 08:35:11;;;;;;;;;3.00;3.00;;;;;24.86;33.11;101821.75;4961259;28;45483;-53
2022/07/15 08:37:37;;;;;;;;;3.25;3.00;;;;;24.88;32.99;101822.50;4956787;28;58659;-53
2022/07/15 08:40:08;;;;;;;;;3.25;2.75;;;;;24.90;32.90;101825.94;4957113;28;45301;-52
2022/07/15 08:42:34;;;;;;;;;4.50;3.00;;;;;24.92;32.96;101815.22;4984347;28;45314;-51
2022/07/15 08:45:00;;;;;;;;;5.00;4.00;;;;;24.93;32.86;101825.75;4982843;28;44774;-51
2022/07/15 08:47:25;;;;;;;;;2.75;2.75;;;;;24.93;32.29;101825.75;4985354;28;46403;-51
2022/07/15 08:50:24;;;;;;;;;3.75;3.00;;;;;24.95;32.35;101812.41;4985886;28;44744;-47
2022/07/15 08:52:51;;;;;;;;;3.00;3.00;;;;;24.95;32.57;101807.97;4986813;28;44880;-43
2022/07/15 08:55:16;;;;;;;;;5.50;4.00;;;;;24.95;32.59;101807.09;4972277;28;44776;-55
2022/07/15 08:57:50;;;;;;;;;4.75;3.00;;;;;24.96;32.99;101807.03;4937708;28;47064;-52
2022/07/15 09:00:16;;;;;;;;;3.50;3.00;;;;;24.97;32.46;101802.56;4937476;28;45377;-52
2022/07/15 09:02:42;;;;;;;;;5.00;2.00;;;;;25.00;32.18;101805.03;4937741;28;45447;-54
2022/07/15 09:05:30;;;;;;;;;4.00;3.25;;;;;25.02;32.23;101808.47;4937665;28;45204;-54
2022/07/15 09:07:59;;;;;;;;;5.50;3.00;;;;;25.04;32.06;101803.91;4937613;28;45425;-54
2022/07/15 09:10:52;;;;;;;;;4.75;2.75;;;;;25.05;32.49;101810.91;4945654;28;45413;-55
2022/07/15 09:13:38;;;;;;;;;7.25;3.25;;;;;25.06;32.22;101801.19;4954136;28;45350;-54
2022/07/15 09:16:19;;;;;;;;;4.50;3.00;;;;;25.06;32.21;101798.53;4963203;28;44832;-53
2022/07/15 09:18:45;;;;;;;;;2.50;2.25;;;;;25.06;31.94;101806.47;4943832;28;47376;-48
2022/07/15 09:21:14;;;;;;;;;2.50;2.50;;;;;25.04;31.57;101801.25;4943050;28;45371;-49
2022/07/15 09:23:39;;;;;;;;;3.25;3.00;;;;;25.06;31.24;101803.81;4943884;28;45728;-51
2022/07/15 09:26:23;;;;;;;;;2.75;2.50;;;;;25.06;31.78;101801.19;4943839;28;45334;-54
2022/07/15 09:28:50;;;;;;;;;3.00;3.00;;;;;25.07;31.68;101810.84;4943854;28;46384;-53
2022/07/15 09:34:21;;;;;;;;;2.00;2.00;;;;;25.07;31.46;101795.75;4945737;28;45435;-54
2022/07/15 09:36:54;;;;;;;;;4.25;2.00;;;;;25.08;31.04;101796.63;4945447;28;45523;-52
2022/07/15 09:39:20;;;;;;;;;2.00;2.00;;;;;25.09;31.41;101798.31;4955387;28;46108;-53
2022/07/15 09:41:47;;;;;;;;;3.00;3.00;;;;;25.09;31.08;101790.34;4963020;28;45784;-52
2022/07/15 09:44:13;;;;;;;;;2.00;2.00;;;;;25.09;30.92;101795.66;4950135;28;45314;-52
2022/07/15 09:46:44;;;;;;;;;3.00;2.00;;;;;25.10;30.74;101789.41;4943558;28;45296;-48
2022/07/15 09:49:12;;;;;;;;;3.00;2.00;;;;;25.11;31.15;101786.69;4943838;28;46346;-50
2022/07/15 09:51:48;;;;;;;;;2.00;2.00;;;;;25.13;30.69;101789.25;4945092;28;45395;-53
2022/07/15 09:54:13;;;;;;;;;3.25;2.00;;;;;25.14;30.41;101790.94;4943224;28;45761;-55
2022/07/15 09:56:39;;;;;;;;;3.75;2.00;;;;;25.15;30.82;101787.34;4945066;28;45169;-53
2022/07/15 09:59:06;;;;;;;;;4.00;2.00;;;;;25.16;30.56;101789.06;4946416;28;45654;-54
2022/07/15 10:01:31;;;;;;;;;2.00;2.00;;;;;25.17;29.83;101786.31;4944999;28;45417;-53
2022/07/15 10:03:57;;;;;;;;;1.50;1.50;;;;;25.17;30.08;101781.00;4949542;28;45399;-51
2022/07/15 10:06:26;;;;;;;;;1.50;1.50;;;;;25.19;30.44;101783.56;4949129;28;45490;-53
2022/07/15 10:08:53;;;;;;;;;1.00;1.00;;;;;25.22;29.62;101785.19;4951678;28;47016;-53
2022/07/15 10:11:19;;;;;;;;;1.00;1.00;;;;;25.23;29.75;101779.78;4966206;28;45078;-49
2022/07/15 10:14:12;;;;;;;;;2.25;1.00;;;;;25.25;29.81;101782.31;4948278;28;45228;-54
2022/07/15 10:17:00;;;;;;;;;3.00;2.00;;;;;25.27;29.24;101776.00;4960802;28;45703;-53
2022/07/15 10:20:07;;;;;;;;;1.00;1.00;;;;;25.29;29.22;101776.78;4934056;28;46485;-54
2022/07/15 10:22:56;;;;;;;;;2.00;2.00;;;;;25.31;29.78;101777.50;4952667;28;71692;-51
2022/07/15 10:25:31;;;;;;;;;2.00;2.00;;;;;25.32;29.45;101771.25;4949224;28;45260;-46
2022/07/15 10:28:13;;;;;;;;;1.00;1.00;;;;;25.35;29.06;101766.72;4947194;28;45394;-52
2022/07/15 10:30:39;;;;;;;;;2.00;2.00;;;;;25.36;28.60;101768.41;4952181;28;46500;-51
2022/07/15 10:33:16;;;;;;;;;1.75;1.75;;;;;25.38;28.52;101766.53;4946534;28;45345;-50
2022/07/15 10:35:46;;;;;;;;;2.00;2.00;;;;;25.39;28.57;101765.59;4948365;28;45272;-53
2022/07/15 10:38:40;;;;;;;;;1.50;1.00;;;;;25.40;28.54;101754.91;4954391;28;45157;-53
2022/07/15 10:41:14;;;;;;;;;1.50;1.50;;;;;25.40;28.69;101752.25;4942735;28;46177;-54
2022/07/15 10:43:42;;;;;;;;;1.00;1.00;;;;;25.41;28.54;101750.47;4943010;28;45344;-53
2022/07/15 10:46:16;;;;;;;;;1.00;1.00;;;;;25.42;28.27;101752.13;4940504;28;45318;-53
2022/07/15 10:48:47;;;;;;;;;3.00;2.00;;;;;25.40;28.33;101741.63;4941109;28;45827;-52
2022/07/15 10:51:35;;;;;;;;;3.75;2.50;;;;;25.46;28.20;101748.34;4939816;28;45733;-53
2022/07/15 10:54:06;;;;;;;;;3.00;2.00;;;;;25.49;28.18;101749.97;4941770;28;45925;-52
2022/07/15 10:56:34;;;;;;;;;2.00;2.00;;;;;25.49;28.95;101742.88;4942172;28;45252;-52
2022/07/15 10:59:09;;;;;;;;;2.00;1.00;;;;;25.52;28.17;101740.00;4942703;28;45600;-54
2022/07/15 11:01:35;;;;;;;;;3.50;1.25;;;;;25.55;28.09;101741.63;4942430;28;47211;-52
2022/07/15 11:04:17;;;;;;;;;1.75;1.75;;;;;25.52;28.07;101732.03;4941986;28;45359;-52
2022/07/15 11:07:01;;;;;;;;;1.00;1.00;;;;;25.57;27.92;101745.88;4939826;28;45368;-51
2022/07/15 11:09:48;;;;;;;;;1.25;1.25;;;;;25.59;28.21;101733.38;4946180;28;45586;-53
2022/07/15 11:12:15;;;;;;;;;2.50;2.00;;;;;25.61;27.98;101731.47;4955814;28;45234;-54
2022/07/15 11:14:45;;;;;;;;;2.25;1.50;;;;;25.62;27.80;101738.50;4941137;28;45755;-50
2022/07/15 11:17:12;;;;;;;;;1.50;1.00;;;;;25.63;27.92;101734.88;4938818;28;45692;-53
2022/07/15 11:19:38;;;;;;;;;2.00;2.00;;;;;25.65;27.70;101732.13;4938660;28;45349;-55
2022/07/15 11:22:04;;;;;;;;;2.75;1.50;;;;;25.65;27.83;101731.25;4937941;28;46051;-50
2022/07/15 11:24:29;;;;;;;;;3.00;2.00;;;;;25.68;27.62;101736.38;4938400;28;45509;-52
2022/07/15 11:26:54;;;;;;;;;2.00;2.00;;;;;25.69;27.80;101735.44;4938227;28;45442;-50
2022/07/15 11:29:20;;;;;;;;;1.00;1.00;;;;;25.71;27.59;101720.28;4939317;28;45237;-48
2022/07/15 11:31:48;;;;;;;;;1.25;1.25;;;;;25.73;28.02;101723.69;4939417;28;46487;-52
2022/07/15 11:34:13;;;;;;;;;2.00;2.00;;;;;25.74;27.77;101720.09;4939601;28;45339;-50